createdAt,value
2022-08-05T00:01:20.562Z,59.09
2022-08-05T00:04:34.528Z,59.19
2022-08-05T00:08:00.853Z,59.06
2022-08-05T00:11:20.705Z,59.12
2022-08-05T00:14:36.429Z,59.19
2022-08-05T00:17:46.892Z,59.25
2022-08-05T00:20:54.650Z,59.44
2022-08-05T00:24:10.461Z,59.55
2022-08-05T00:27:17.072Z,59.64
2022-08-05T00:30:28.971Z,59.75
2022-08-05T00:34:53.261Z,59.79
2022-08-05T00:37:10.421Z,59.79
2022-08-05T00:40:27.018Z,59.97
2022-08-05T00:43:46.953Z,60.25
2022-08-05T00:46:53.931Z,60.44
2022-08-05T00:50:12.227Z,60.64
2022-08-05T00:54:00.253Z,60.53
2022-08-05T00:56:51.564Z,60.90
2022-08-05T00:59:57.823Z,60.98
2022-08-05T01:03:07.871Z,61.09
2022-08-05T01:06:17.037Z,61.38
2022-08-05T01:09:23.783Z,61.42
2022-08-05T01:12:34.158Z,61.48
2022-08-05T01:15:47.750Z,61.70
2022-08-05T01:18:57.624Z,61.62
2022-08-05T01:22:34.218Z,62.00
2022-08-05T01:26:03.896Z,62.22
2022-08-05T01:29:23.137Z,62.37
2022-08-05T01:32:35.211Z,62.40
2022-08-05T01:35:51.680Z,62.72
2022-08-05T01:39:01.373Z,62.81
2022-08-05T01:42:09.884Z,63.04
2022-08-05T01:45:19.899Z,63.30
2022-08-05T01:48:28.561Z,63.25
2022-08-05T01:51:36.927Z,63.49
2022-08-05T01:54:52.001Z,63.44
2022-08-05T01:58:12.461Z,63.58
2022-08-05T02:01:39.802Z,63.83
2022-08-05T02:04:49.521Z,64.03
2022-08-05T02:08:01.462Z,64.14
2022-08-05T02:11:11.972Z,64.15
2022-08-05T02:14:24.206Z,64.19
2022-08-05T02:18:30.601Z,64.71
2022-08-05T02:21:18.284Z,64.77
2022-08-05T02:24:30.934Z,64.88
2022-08-05T02:27:58.177Z,64.79
2022-08-05T02:31:14.594Z,65.04
2022-08-05T02:34:25.800Z,65.21
2022-08-05T02:37:39.936Z,65.28
2022-08-05T02:40:48.063Z,65.17
2022-08-05T02:44:02.337Z,65.62
2022-08-05T02:47:16.253Z,65.38
2022-08-05T02:50:26.241Z,65.49
2022-08-05T02:53:35.979Z,65.54
2022-08-05T02:56:47.029Z,65.81
2022-08-05T02:59:54.592Z,65.87
2022-08-05T03:03:03.378Z,66.14
2022-08-05T03:06:53.703Z,65.98
2022-08-05T03:09:51.615Z,65.74
2022-08-05T03:16:08.223Z,66.03
2022-08-05T03:19:20.231Z,66.00
2022-08-05T03:22:44.236Z,65.76
2022-08-05T03:26:04.831Z,65.92
2022-08-05T03:29:23.647Z,66.01
2022-08-05T03:32:31.447Z,66.04
2022-08-05T03:35:41.061Z,66.40
2022-08-05T03:38:53.203Z,66.26
2022-08-05T03:41:59.907Z,66.23
2022-08-05T03:45:22.744Z,66.09
2022-08-05T03:48:30.165Z,66.11
2022-08-05T03:52:49.028Z,65.94
2022-08-05T03:56:06.027Z,66.15
2022-08-05T03:58:47.950Z,65.93
2022-08-05T04:01:59.783Z,65.97
2022-08-05T04:05:11.492Z,65.76
2022-08-05T04:08:34.640Z,65.65
2022-08-05T04:11:50.939Z,65.36
2022-08-05T04:14:59.274Z,65.42
2022-08-05T04:18:12.753Z,65.08
2022-08-05T04:22:08.641Z,64.94
2022-08-05T04:24:55.437Z,64.84
2022-08-05T04:28:11.173Z,64.50
2022-08-05T04:31:19.803Z,64.27
2022-08-05T04:34:33.004Z,64.38
2022-08-05T04:38:02.127Z,63.53
2022-08-05T04:41:09.518Z,63.86
2022-08-05T04:44:21.194Z,63.85
2022-08-05T04:47:42.759Z,63.65
2022-08-05T04:51:02.754Z,63.74
2022-08-05T04:54:10.027Z,63.65
2022-08-05T04:57:18.822Z,63.29
2022-08-05T05:00:27.691Z,63.28
2022-08-05T05:03:42.252Z,63.01
2022-08-05T05:06:52.090Z,62.62
2022-08-05T05:10:06.671Z,62.39
2022-08-05T05:13:13.054Z,61.89
2022-08-05T05:16:23.103Z,61.68
2022-08-05T05:19:44.062Z,62.93
2022-08-05T05:22:51.240Z,61.21
2022-08-05T05:25:57.469Z,61.19
2022-08-05T05:29:14.257Z,61.24
2022-08-05T05:32:23.622Z,61.08
2022-08-05T05:35:34.443Z,60.53
2022-08-05T05:38:45.538Z,60.49
2022-08-05T05:41:54.519Z,60.26
2022-08-05T05:45:00.610Z,60.09
2022-08-05T05:48:15.960Z,60.09
2022-08-05T05:51:24.402Z,59.86
2022-08-05T05:54:35.488Z,59.75
2022-08-05T05:57:57.205Z,59.31
2022-08-05T06:01:13.299Z,59.34
2022-08-05T06:04:23.979Z,58.88
2022-08-05T06:07:41.851Z,58.84
2022-08-05T06:10:49.071Z,58.66
2022-08-05T06:14:00.379Z,58.33
2022-08-05T06:17:22.203Z,58.09
2022-08-05T06:20:33.752Z,58.34
2022-08-05T06:23:44.108Z,57.90
2022-08-05T06:26:53.144Z,57.54
2022-08-05T06:30:04.200Z,57.55
2022-08-05T06:33:19.083Z,57.39
2022-08-05T06:36:28.502Z,56.56
2022-08-05T06:39:55.153Z,55.78
2022-08-05T06:43:01.074Z,55.97
2022-08-05T06:46:08.773Z,55.89
2022-08-05T06:49:14.641Z,55.64
2022-08-05T06:52:36.824Z,55.89
2022-08-05T06:55:44.959Z,54.46
2022-08-05T06:58:53.190Z,54.88
2022-08-05T07:01:59.243Z,54.55
2022-08-05T07:05:15.361Z,54.90
2022-08-05T07:08:29.110Z,54.28
2022-08-05T07:11:39.704Z,54.29
2022-08-05T07:15:34.011Z,54.30
2022-08-05T07:18:47.695Z,55.04
2022-08-05T07:21:59.867Z,54.34
2022-08-05T07:25:22.525Z,54.59
2022-08-05T07:28:38.547Z,54.92
2022-08-05T07:31:54.477Z,54.94
2022-08-05T07:35:01.179Z,54.26
2022-08-05T07:38:33.562Z,54.08
2022-08-05T07:42:09.015Z,54.09
2022-08-05T07:45:11.643Z,53.66
2022-08-05T07:49:01.550Z,53.74
2022-08-05T07:51:54.243Z,52.90
2022-08-05T07:55:01.071Z,53.04
2022-08-05T07:58:17.595Z,53.63
2022-08-05T08:01:41.622Z,53.61
2022-08-05T08:05:00.144Z,53.32
2022-08-05T08:08:12.230Z,52.64
2022-08-05T08:11:19.274Z,52.63
2022-08-05T08:14:36.970Z,52.69
2022-08-05T08:17:52.465Z,52.03
2022-08-05T08:21:02.143Z,51.95
2022-08-05T08:24:13.547Z,51.60
2022-08-05T08:27:20.582Z,51.88
2022-08-05T08:30:37.728Z,51.61
2022-08-05T08:33:53.843Z,51.60
2022-08-05T08:37:04.788Z,51.13
2022-08-05T08:40:12.225Z,51.17
2022-08-05T08:45:23.704Z,51.03
2022-08-05T08:46:51.490Z,50.60
2022-08-05T08:50:05.915Z,50.10
2022-08-05T08:53:28.899Z,49.94
2022-08-05T08:56:36.229Z,49.60
2022-08-05T08:59:54.021Z,49.61
2022-08-05T09:03:08.634Z,49.85
2022-08-05T09:06:18.640Z,49.70
2022-08-05T09:09:34.608Z,49.65
2022-08-05T09:12:42.141Z,49.44
2022-08-05T09:15:49.539Z,48.73
2022-08-05T09:18:59.429Z,48.75
2022-08-05T09:22:22.594Z,48.54
2022-08-05T09:26:00.969Z,48.12
2022-08-05T09:29:05.004Z,46.22
2022-08-05T09:32:40.966Z,46.82
2022-08-05T09:35:55.897Z,44.82
2022-08-05T09:39:03.701Z,45.49
2022-08-05T09:42:28.463Z,45.87
2022-08-05T09:46:07.801Z,46.00
2022-08-05T09:50:00.780Z,44.66
2022-08-05T09:53:01.313Z,42.63
2022-08-05T09:56:12.847Z,44.27
2022-08-05T09:59:19.451Z,43.03
2022-08-05T10:02:34.740Z,42.55
2022-08-05T10:05:42.144Z,44.14
2022-08-05T10:08:55.339Z,43.67
2022-08-05T10:12:18.543Z,44.05
2022-08-05T10:15:41.416Z,45.01
2022-08-05T10:18:48.322Z,45.05
2022-08-05T10:21:55.287Z,45.48
2022-08-05T10:25:04.044Z,44.29
2022-08-05T10:28:17.520Z,44.92
2022-08-05T10:32:55.161Z,44.63
2022-08-05T10:35:03.490Z,44.38
2022-08-05T10:38:11.762Z,44.21
2022-08-05T10:41:46.436Z,43.75
2022-08-05T10:44:54.014Z,44.05
2022-08-05T10:48:29.717Z,44.43
2022-08-05T10:51:29.047Z,44.92
2022-08-05T10:55:06.445Z,44.08
2022-08-05T10:58:17.992Z,43.79
2022-08-05T11:01:55.522Z,43.78
2022-08-05T11:04:58.980Z,43.26
2022-08-05T11:08:33.633Z,43.65
2022-08-05T11:11:44.915Z,43.52
2022-08-05T11:15:20.134Z,41.45
2022-08-05T11:18:32.508Z,42.40
2022-08-05T11:21:49.559Z,41.81
2022-08-05T11:26:04.418Z,42.06
2022-08-05T11:29:12.789Z,41.59
2022-08-05T11:32:35.046Z,42.12
2022-08-05T11:36:04.510Z,41.13
2022-08-05T11:39:15.201Z,41.75
2022-08-05T11:42:28.401Z,41.15
2022-08-05T11:46:14.914Z,41.70
2022-08-05T11:49:06.290Z,42.06
2022-08-05T11:52:14.508Z,42.21
2022-08-05T11:55:22.022Z,42.36
2022-08-05T11:58:41.563Z,41.88
2022-08-05T12:02:03.283Z,41.13
2022-08-05T12:05:36.147Z,40.35
2022-08-05T12:08:50.870Z,40.66
2022-08-05T12:11:57.657Z,41.84
2022-08-05T12:15:11.965Z,41.62
2022-08-05T12:18:24.324Z,41.91
2022-08-05T12:21:39.373Z,41.83
2022-08-05T12:24:49.751Z,41.51
2022-08-05T12:28:06.619Z,40.98
2022-08-05T12:31:42.511Z,40.15
2022-08-05T12:34:53.324Z,40.11
2022-08-05T12:38:03.090Z,39.96
2022-08-05T12:41:16.054Z,40.07
2022-08-05T12:44:33.585Z,40.07
2022-08-05T12:48:01.464Z,40.21
2022-08-05T12:51:21.912Z,39.01
2022-08-05T12:54:50.580Z,39.84
2022-08-05T12:58:50.396Z,39.23
2022-08-05T13:02:03.020Z,39.65
2022-08-05T13:04:54.744Z,39.09
2022-08-05T13:08:08.781Z,39.62
2022-08-05T13:11:46.937Z,39.17
2022-08-05T13:15:05.762Z,39.05
2022-08-05T13:18:19.659Z,39.71
2022-08-05T13:21:28.311Z,39.15
2022-08-05T13:24:57.257Z,39.10
2022-08-05T13:28:08.140Z,38.63
2022-08-05T13:31:17.112Z,38.47
2022-08-05T13:34:40.972Z,38.23
2022-08-05T13:37:47.699Z,37.79
2022-08-05T13:41:03.449Z,37.70
2022-08-05T13:44:12.341Z,38.30
2022-08-05T13:47:34.876Z,38.21
2022-08-05T13:50:41.291Z,39.22
2022-08-05T13:53:51.556Z,38.45
2022-08-05T13:57:03.927Z,38.89
2022-08-05T14:00:17.446Z,38.19
2022-08-05T14:03:23.846Z,38.83
2022-08-05T14:06:30.874Z,38.12
2022-08-05T14:09:37.904Z,38.50
2022-08-05T14:12:54.612Z,38.65
2022-08-05T14:16:06.971Z,38.03
2022-08-05T14:19:16.703Z,37.89
2022-08-05T14:22:23.902Z,37.80
2022-08-05T14:25:37.573Z,37.43
2022-08-05T14:28:52.153Z,35.60
2022-08-05T14:32:15.826Z,37.11
2022-08-05T14:35:23.573Z,32.95
2022-08-05T14:38:44.606Z,34.13
2022-08-05T14:42:15.981Z,35.39
2022-08-05T14:45:17.865Z,33.68
2022-08-05T14:48:33.643Z,33.49
2022-08-05T14:51:43.213Z,34.40
2022-08-05T14:54:52.979Z,36.12
2022-08-05T14:58:03.454Z,35.36
2022-08-05T15:01:21.354Z,35.72
2022-08-05T15:04:34.326Z,36.01
2022-08-05T15:08:06.697Z,36.25
2022-08-05T15:11:09.652Z,35.96
2022-08-05T15:14:33.274Z,36.16
2022-08-05T15:17:46.789Z,33.95
2022-08-05T15:21:07.711Z,35.34
2022-08-05T15:24:15.201Z,34.37
2022-08-05T15:27:25.792Z,33.60
2022-08-05T15:30:35.031Z,33.29
2022-08-05T15:33:56.940Z,31.56
2022-08-05T15:37:14.686Z,32.14
2022-08-05T15:40:59.063Z,30.57
2022-08-05T15:43:48.581Z,29.86
2022-08-05T15:46:55.643Z,29.96
2022-08-05T15:50:03.250Z,29.73
2022-08-05T15:53:12.894Z,29.33
2022-08-05T15:56:19.858Z,29.01
2022-08-05T15:59:26.239Z,28.85
2022-08-05T16:02:36.415Z,28.24
2022-08-05T16:05:42.679Z,27.91
2022-08-05T16:08:55.252Z,27.68
2022-08-05T16:12:03.104Z,27.74
2022-08-05T16:15:10.629Z,27.44
2022-08-05T16:18:28.069Z,27.06
2022-08-05T16:22:00.045Z,25.80
2022-08-05T16:25:09.394Z,26.69
2022-08-05T16:28:16.844Z,25.85
2022-08-05T16:31:22.978Z,26.48
2022-08-05T16:34:31.054Z,26.02
2022-08-05T16:38:13.676Z,25.73
2022-08-05T16:42:24.161Z,26.71
2022-08-05T16:44:35.917Z,27.44
2022-08-05T16:47:53.592Z,27.00
2022-08-05T16:51:08.789Z,26.17
2022-08-05T16:54:25.803Z,26.33
2022-08-05T16:57:42.969Z,26.02
2022-08-05T17:01:06.606Z,26.58
2022-08-05T17:04:16.380Z,27.52
2022-08-05T17:07:39.165Z,27.94
2022-08-05T17:10:45.445Z,29.04
2022-08-05T17:14:05.263Z,29.02
2022-08-05T17:17:14.940Z,29.83
2022-08-05T17:20:22.049Z,30.18
2022-08-05T17:24:03.597Z,30.79
2022-08-05T17:26:55.525Z,31.29
2022-08-05T17:30:07.070Z,31.77
2022-08-05T17:33:19.987Z,32.11
2022-08-05T17:36:33.748Z,32.83
2022-08-05T17:39:43.776Z,32.65
2022-08-05T17:42:51.088Z,32.77
2022-08-05T17:46:03.055Z,33.24
2022-08-05T17:49:10.510Z,33.63
2022-08-05T17:52:18.679Z,33.98
2022-08-05T17:55:27.261Z,33.96
2022-08-05T17:58:41.665Z,34.31
2022-08-05T18:01:50.701Z,34.52
2022-08-05T18:04:57.431Z,34.82
2022-08-05T18:08:06.106Z,35.16
2022-08-05T18:11:23.180Z,35.80
2022-08-05T18:14:30.902Z,35.55
2022-08-05T18:18:00.240Z,36.23
2022-08-05T18:21:13.224Z,36.79
2022-08-05T18:24:26.559Z,36.70
2022-08-05T18:27:34.175Z,36.74
2022-08-05T18:30:44.246Z,37.96
2022-08-05T18:33:54.017Z,38.07
2022-08-05T18:37:03.514Z,38.10
2022-08-05T18:40:34.094Z,38.39
2022-08-05T18:43:49.149Z,38.60
2022-08-05T18:46:55.229Z,39.25
2022-08-05T18:53:43.115Z,40.14
2022-08-05T18:56:57.211Z,41.04
2022-08-05T19:00:10.379Z,42.37
2022-08-05T19:03:53.309Z,42.56
2022-08-05T19:06:56.011Z,43.55
2022-08-05T19:10:04.519Z,43.15
2022-08-05T19:13:16.759Z,43.63
2022-08-05T19:16:28.611Z,44.35
2022-08-05T19:19:36.056Z,44.05
2022-08-05T19:22:54.117Z,44.83
2022-08-05T19:26:01.617Z,44.91
2022-08-05T19:29:09.746Z,44.72
2022-08-05T19:32:15.596Z,45.50
2022-08-05T19:35:23.047Z,46.05
2022-08-05T19:38:32.115Z,46.11
2022-08-05T19:42:06.077Z,46.26
2022-08-05T19:45:06.619Z,46.57
2022-08-05T19:48:14.548Z,46.59
2022-08-05T19:51:31.253Z,47.06
2022-08-05T19:54:50.935Z,47.51
2022-08-05T19:58:14.247Z,47.55
2022-08-05T20:01:28.315Z,47.76
2022-08-05T20:04:34.747Z,47.65
2022-08-05T20:07:48.583Z,48.03
2022-08-05T20:10:58.245Z,48.12
2022-08-05T20:14:12.316Z,48.27
2022-08-05T20:17:23.175Z,48.46
2022-08-05T20:20:31.278Z,48.56
2022-08-05T20:23:51.076Z,48.62
2022-08-05T20:27:03.868Z,48.64
2022-08-05T20:30:19.638Z,48.82
2022-08-05T20:33:26.799Z,48.80
2022-08-05T20:36:36.911Z,48.70
2022-08-05T20:39:51.598Z,49.10
2022-08-05T20:43:00.716Z,49.01
2022-08-05T20:46:10.398Z,49.23
2022-08-05T20:49:25.954Z,49.02
2022-08-05T20:52:34.050Z,49.60
2022-08-05T20:55:56.503Z,49.74
2022-08-05T20:59:18.915Z,50.44
2022-08-05T21:02:26.793Z,50.45
2022-08-05T21:05:38.319Z,50.92
2022-08-05T21:09:00.284Z,51.15
2022-08-05T21:12:11.831Z,51.10
2022-08-05T21:15:21.095Z,51.31
2022-08-05T21:18:28.163Z,51.91
2022-08-05T21:21:39.196Z,52.17
2022-08-05T21:24:51.880Z,52.00
2022-08-05T21:27:58.347Z,52.50
2022-08-05T21:31:09.653Z,52.39
2022-08-05T21:34:18.977Z,52.67
2022-08-05T21:37:26.844Z,52.77
2022-08-05T21:40:33.009Z,53.34
2022-08-05T21:43:41.728Z,53.53
2022-08-05T21:46:50.711Z,53.50
2022-08-05T21:50:01.105Z,53.65
2022-08-05T21:53:17.469Z,54.18
2022-08-05T21:56:24.465Z,54.17
2022-08-05T21:59:48.074Z,54.13
2022-08-05T22:03:03.047Z,55.22
2022-08-05T22:06:09.590Z,55.21
2022-08-05T22:09:21.180Z,55.04
2022-08-05T22:12:28.219Z,55.05
2022-08-05T22:16:02.036Z,55.54
2022-08-05T22:19:57.214Z,55.35
2022-08-05T22:22:53.645Z,55.83
2022-08-05T22:26:16.954Z,56.01
2022-08-05T22:29:26.277Z,55.83
2022-08-05T22:32:32.946Z,56.91
2022-08-05T22:35:48.566Z,56.98
2022-08-05T22:38:55.498Z,56.61
2022-08-05T22:42:09.898Z,57.03
2022-08-05T22:45:17.804Z,57.02
2022-08-05T22:48:27.193Z,57.04
2022-08-05T22:52:05.805Z,57.71
2022-08-05T22:55:04.296Z,57.49
2022-08-05T22:58:28.225Z,57.70
2022-08-05T23:01:50.907Z,58.09
2022-08-05T23:05:05.021Z,58.07
2022-08-05T23:08:15.466Z,57.84
2022-08-05T23:11:21.398Z,58.27
2022-08-05T23:14:32.440Z,58.28
2022-08-05T23:18:01.458Z,58.75
2022-08-05T23:21:06.485Z,58.25
2022-08-05T23:24:19.044Z,59.05
2022-08-05T23:27:31.194Z,58.80
2022-08-05T23:30:40.393Z,59.10
2022-08-05T23:34:05.140Z,58.75
2022-08-05T23:37:12.472Z,58.67
2022-08-05T23:40:27.114Z,59.11
2022-08-05T23:44:03.203Z,58.94
2022-08-05T23:47:00.493Z,59.15
2022-08-05T23:50:09.995Z,59.26
2022-08-05T23:53:22.723Z,59.58
2022-08-05T23:56:32.049Z,59.13
